sensor_id;sensor_type;location;lat;lon;timestamp;P1;durP1;ratioP1;P2;durP2;ratioP2
20976;SDS011;10647;51.016;3.720;2023-02-01T00:00:18;26.70;;;5.13;;
20976;SDS011;10647;51.016;3.720;2023-02-01T00:02:46;16.33;;;4.97;;
20976;SDS011;10647;51.016;3.720;2023-02-01T00:05:13;23.80;;;5.10;;
20976;SDS011;10647;51.016;3.720;2023-02-01T00:07:41;22.10;;;4.30;;
20976;SDS011;10647;51.016;3.720;2023-02-01T00:10:09;21.63;;;4.50;;
20976;SDS011;10647;51.016;3.720;2023-02-01T00:12:37;19.73;;;4.33;;
20976;SDS011;10647;51.016;3.720;2023-02-01T00:15:04;21.97;;;4.83;;
20976;SDS011;10647;51.016;3.720;2023-02-01T00:17:32;18.03;;;3.93;;
20976;SDS011;10647;51.016;3.720;2023-02-01T00:20:00;24.73;;;4.93;;
20976;SDS011;10647;51.016;3.720;2023-02-01T00:22:28;20.33;;;4.47;;
20976;SDS011;10647;51.016;3.720;2023-02-01T00:24:56;22.43;;;4.30;;
20976;SDS011;10647;51.016;3.720;2023-02-01T00:27:23;25.87;;;5.70;;
20976;SDS011;10647;51.016;3.720;2023-02-01T00:29:51;21.63;;;4.30;;
20976;SDS011;10647;51.016;3.720;2023-02-01T00:32:20;21.97;;;4.50;;
20976;SDS011;10647;51.016;3.720;2023-02-01T00:34:48;22.47;;;4.57;;
20976;SDS011;10647;51.016;3.720;2023-02-01T00:37:16;21.00;;;4.00;;
20976;SDS011;10647;51.016;3.720;2023-02-01T00:39:43;15.80;;;3.40;;
20976;SDS011;10647;51.016;3.720;2023-02-01T00:42:11;21.27;;;3.70;;
20976;SDS011;10647;51.016;3.720;2023-02-01T00:44:38;20.33;;;4.37;;
20976;SDS011;10647;51.016;3.720;2023-02-01T00:47:06;22.70;;;4.20;;
20976;SDS011;10647;51.016;3.720;2023-02-01T00:49:33;16.77;;;3.90;;
20976;SDS011;10647;51.016;3.720;2023-02-01T00:52:01;22.40;;;3.70;;
20976;SDS011;10647;51.016;3.720;2023-02-01T00:54:29;18.67;;;3.70;;
20976;SDS011;10647;51.016;3.720;2023-02-01T00:56:56;14.10;;;3.83;;
20976;SDS011;10647;51.016;3.720;2023-02-01T00:59:24;17.03;;;3.90;;
20976;SDS011;10647;51.016;3.720;2023-02-01T01:01:51;18.40;;;3.40;;
20976;SDS011;10647;51.016;3.720;2023-02-01T01:04:19;23.27;;;3.43;;
20976;SDS011;10647;51.016;3.720;2023-02-01T01:06:46;29.83;;;3.60;;
20976;SDS011;10647;51.016;3.720;2023-02-01T01:09:14;25.63;;;3.97;;
20976;SDS011;10647;51.016;3.720;2023-02-01T01:11:41;18.53;;;3.20;;
20976;SDS011;10647;51.016;3.720;2023-02-01T01:14:09;22.17;;;3.63;;
20976;SDS011;10647;51.016;3.720;2023-02-01T01:16:37;25.73;;;4.07;;
20976;SDS011;10647;51.016;3.720;2023-02-01T01:19:04;20.43;;;3.40;;
20976;SDS011;10647;51.016;3.720;2023-02-01T01:21:32;28.10;;;4.10;;
20976;SDS011;10647;51.016;3.720;2023-02-01T01:24:00;16.33;;;3.40;;
20976;SDS011;10647;51.016;3.720;2023-02-01T01:26:28;24.87;;;3.50;;
20976;SDS011;10647;51.016;3.720;2023-02-01T01:28:57;29.97;;;4.03;;
20976;SDS011;10647;51.016;3.720;2023-02-01T01:31:25;22.93;;;3.57;;
20976;SDS011;10647;51.016;3.720;2023-02-01T01:33:55;26.23;;;4.07;;
20976;SDS011;10647;51.016;3.720;2023-02-01T01:36:24;19.70;;;4.10;;
20976;SDS011;10647;51.016;3.720;2023-02-01T01:38:53;20.63;;;3.37;;
20976;SDS011;10647;51.016;3.720;2023-02-01T01:41:22;25.03;;;4.53;;
20976;SDS011;10647;51.016;3.720;2023-02-01T01:43:58;21.83;;;4.43;;
20976;SDS011;10647;51.016;3.720;2023-02-01T01:46:45;23.93;;;3.70;;
20976;SDS011;10647;51.016;3.720;2023-02-01T01:49:20;15.20;;;3.07;;
20976;SDS011;10647;51.016;3.720;2023-02-01T01:51:50;23.07;;;4.00;;
20976;SDS011;10647;51.016;3.720;2023-02-01T01:54:27;24.90;;;4.27;;
20976;SDS011;10647;51.016;3.720;2023-02-01T01:57:20;17.17;;;3.37;;
20976;SDS011;10647;51.016;3.720;2023-02-01T01:59:46;27.77;;;4.13;;
20976;SDS011;10647;51.016;3.720;2023-02-01T02:02:15;20.53;;;4.40;;
20976;SDS011;10647;51.016;3.720;2023-02-01T02:04:43;18.97;;;4.17;;
20976;SDS011;10647;51.016;3.720;2023-02-01T02:07:14;19.70;;;4.20;;
20976;SDS011;10647;51.016;3.720;2023-02-01T02:09:43;15.90;;;3.90;;
20976;SDS011;10647;51.016;3.720;2023-02-01T02:12:11;16.50;;;3.43;;
20976;SDS011;10647;51.016;3.720;2023-02-01T02:14:39;23.03;;;4.50;;
20976;SDS011;10647;51.016;3.720;2023-02-01T02:17:44;23.03;;;4.37;;
20976;SDS011;10647;51.016;3.720;2023-02-01T02:25:48;27.83;;;6.73;;
20976;SDS011;10647;51.016;3.720;2023-02-01T02:39:58;16.77;;;3.63;;
20976;SDS011;10647;51.016;3.720;2023-02-01T02:45:47;17.23;;;3.03;;
20976;SDS011;10647;51.016;3.720;2023-02-01T02:52:16;19.80;;;3.53;;
20976;SDS011;10647;51.016;3.720;2023-02-01T02:54:24;26.03;;;4.10;;
20976;SDS011;10647;51.016;3.720;2023-02-01T02:57:23;20.90;;;4.13;;
20976;SDS011;10647;51.016;3.720;2023-02-01T03:00:15;26.30;;;3.93;;
20976;SDS011;10647;51.016;3.720;2023-02-01T03:03:03;19.00;;;3.40;;
20976;SDS011;10647;51.016;3.720;2023-02-01T03:05:49;24.27;;;3.63;;
20976;SDS011;10647;51.016;3.720;2023-02-01T03:08:17;21.07;;;3.70;;
20976;SDS011;10647;51.016;3.720;2023-02-01T03:11:13;22.93;;;3.53;;
20976;SDS011;10647;51.016;3.720;2023-02-01T03:13:55;18.80;;;4.10;;
20976;SDS011;10647;51.016;3.720;2023-02-01T03:22:05;21.87;;;2.77;;
20976;SDS011;10647;51.016;3.720;2023-02-01T03:24:46;18.77;;;3.77;;
20976;SDS011;10647;51.016;3.720;2023-02-01T03:27:32;22.07;;;3.77;;
20976;SDS011;10647;51.016;3.720;2023-02-01T03:30:09;27.80;;;3.67;;
20976;SDS011;10647;51.016;3.720;2023-02-01T03:32:39;30.67;;;4.13;;
20976;SDS011;10647;51.016;3.720;2023-02-01T03:35:31;22.90;;;2.90;;
20976;SDS011;10647;51.016;3.720;2023-02-01T03:43:33;24.90;;;3.83;;
20976;SDS011;10647;51.016;3.720;2023-02-01T03:48:56;24.70;;;3.47;;
20976;SDS011;10647;51.016;3.720;2023-02-01T03:51:29;22.53;;;4.40;;
20976;SDS011;10647;51.016;3.720;2023-02-01T03:53:59;24.77;;;3.50;;
20976;SDS011;10647;51.016;3.720;2023-02-01T03:59:17;23.27;;;3.83;;
20976;SDS011;10647;51.016;3.720;2023-02-01T04:01:44;22.17;;;3.93;;
20976;SDS011;10647;51.016;3.720;2023-02-01T04:04:12;18.10;;;3.67;;
20976;SDS011;10647;51.016;3.720;2023-02-01T04:06:41;21.23;;;3.63;;
20976;SDS011;10647;51.016;3.720;2023-02-01T04:09:09;26.03;;;3.80;;
20976;SDS011;10647;51.016;3.720;2023-02-01T04:11:36;26.60;;;3.83;;
20976;SDS011;10647;51.016;3.720;2023-02-01T04:14:04;24.23;;;4.13;;
20976;SDS011;10647;51.016;3.720;2023-02-01T04:16:31;24.00;;;4.20;;
20976;SDS011;10647;51.016;3.720;2023-02-01T04:18:59;27.30;;;4.40;;
20976;SDS011;10647;51.016;3.720;2023-02-01T04:21:27;22.30;;;2.87;;
20976;SDS011;10647;51.016;3.720;2023-02-01T04:23:55;23.70;;;3.93;;
20976;SDS011;10647;51.016;3.720;2023-02-01T04:26:23;23.23;;;4.00;;
20976;SDS011;10647;51.016;3.720;2023-02-01T04:28:50;23.17;;;3.53;;
20976;SDS011;10647;51.016;3.720;2023-02-01T04:31:18;20.50;;;3.03;;
20976;SDS011;10647;51.016;3.720;2023-02-01T04:33:53;25.00;;;3.93;;
20976;SDS011;10647;51.016;3.720;2023-02-01T04:36:23;27.60;;;3.83;;
20976;SDS011;10647;51.016;3.720;2023-02-01T04:38:51;22.53;;;3.70;;
20976;SDS011;10647;51.016;3.720;2023-02-01T04:41:19;24.53;;;3.63;;
20976;SDS011;10647;51.016;3.720;2023-02-01T04:43:48;28.67;;;3.90;;
20976;SDS011;10647;51.016;3.720;2023-02-01T04:46:18;31.13;;;4.37;;
20976;SDS011;10647;51.016;3.720;2023-02-01T04:48:47;22.27;;;3.80;;
20976;SDS011;10647;51.016;3.720;2023-02-01T04:51:14;27.17;;;3.63;;
20976;SDS011;10647;51.016;3.720;2023-02-01T04:53:44;26.60;;;4.03;;
20976;SDS011;10647;51.016;3.720;2023-02-01T04:56:11;33.27;;;4.53;;
20976;SDS011;10647;51.016;3.720;2023-02-01T04:58:39;27.63;;;4.20;;
20976;SDS011;10647;51.016;3.720;2023-02-01T05:01:07;26.97;;;3.90;;
20976;SDS011;10647;51.016;3.720;2023-02-01T05:03:35;26.53;;;4.57;;
20976;SDS011;10647;51.016;3.720;2023-02-01T05:06:03;35.17;;;5.17;;
20976;SDS011;10647;51.016;3.720;2023-02-01T05:08:31;28.33;;;4.27;;
20976;SDS011;10647;51.016;3.720;2023-02-01T05:10:59;23.23;;;4.17;;
20976;SDS011;10647;51.016;3.720;2023-02-01T05:13:28;21.57;;;4.40;;
20976;SDS011;10647;51.016;3.720;2023-02-01T05:16:14;21.90;;;3.60;;
20976;SDS011;10647;51.016;3.720;2023-02-01T05:18:42;30.53;;;3.87;;
20976;SDS011;10647;51.016;3.720;2023-02-01T05:21:10;20.30;;;4.23;;
20976;SDS011;10647;51.016;3.720;2023-02-01T05:23:40;28.53;;;5.27;;
20976;SDS011;10647;51.016;3.720;2023-02-01T05:26:26;24.77;;;3.93;;
20976;SDS011;10647;51.016;3.720;2023-02-01T05:28:53;29.33;;;4.57;;
20976;SDS011;10647;51.016;3.720;2023-02-01T05:31:23;32.20;;;4.73;;
20976;SDS011;10647;51.016;3.720;2023-02-01T05:33:50;20.80;;;4.80;;
20976;SDS011;10647;51.016;3.720;2023-02-01T05:36:18;21.37;;;3.90;;
20976;SDS011;10647;51.016;3.720;2023-02-01T05:38:45;27.27;;;4.70;;
20976;SDS011;10647;51.016;3.720;2023-02-01T05:41:16;26.63;;;3.43;;
20976;SDS011;10647;51.016;3.720;2023-02-01T05:43:43;22.93;;;4.83;;
20976;SDS011;10647;51.016;3.720;2023-02-01T05:46:11;27.40;;;4.33;;
20976;SDS011;10647;51.016;3.720;2023-02-01T05:48:39;28.60;;;5.17;;
20976;SDS011;10647;51.016;3.720;2023-02-01T05:51:10;27.13;;;4.43;;
20976;SDS011;10647;51.016;3.720;2023-02-01T05:53:38;22.40;;;4.13;;
20976;SDS011;10647;51.016;3.720;2023-02-01T05:56:06;25.43;;;4.27;;
20976;SDS011;10647;51.016;3.720;2023-02-01T05:58:33;26.90;;;4.67;;
20976;SDS011;10647;51.016;3.720;2023-02-01T06:01:02;30.70;;;4.20;;
20976;SDS011;10647;51.016;3.720;2023-02-01T06:03:30;23.23;;;4.00;;
20976;SDS011;10647;51.016;3.720;2023-02-01T06:05:57;22.53;;;3.87;;
20976;SDS011;10647;51.016;3.720;2023-02-01T06:08:27;29.97;;;5.00;;
20976;SDS011;10647;51.016;3.720;2023-02-01T06:13:33;32.37;;;4.70;;
20976;SDS011;10647;51.016;3.720;2023-02-01T06:16:04;26.30;;;3.97;;
20976;SDS011;10647;51.016;3.720;2023-02-01T06:18:34;20.83;;;3.80;;
20976;SDS011;10647;51.016;3.720;2023-02-01T06:21:02;30.77;;;4.00;;
20976;SDS011;10647;51.016;3.720;2023-02-01T06:23:30;25.23;;;4.33;;
20976;SDS011;10647;51.016;3.720;2023-02-01T06:31:13;29.77;;;3.50;;
20976;SDS011;10647;51.016;3.720;2023-02-01T06:33:47;26.03;;;4.50;;
20976;SDS011;10647;51.016;3.720;2023-02-01T06:36:15;35.87;;;5.27;;
20976;SDS011;10647;51.016;3.720;2023-02-01T06:38:45;23.17;;;3.90;;
20976;SDS011;10647;51.016;3.720;2023-02-01T06:41:14;26.70;;;4.30;;
20976;SDS011;10647;51.016;3.720;2023-02-01T06:43:42;25.23;;;4.37;;
20976;SDS011;10647;51.016;3.720;2023-02-01T06:46:12;22.27;;;5.17;;
20976;SDS011;10647;51.016;3.720;2023-02-01T06:48:46;28.33;;;3.80;;
20976;SDS011;10647;51.016;3.720;2023-02-01T06:51:24;29.20;;;4.63;;
20976;SDS011;10647;51.016;3.720;2023-02-01T06:53:47;24.40;;;3.50;;
20976;SDS011;10647;51.016;3.720;2023-02-01T06:56:16;18.50;;;3.90;;
20976;SDS011;10647;51.016;3.720;2023-02-01T06:58:50;26.40;;;4.43;;
20976;SDS011;10647;51.016;3.720;2023-02-01T07:01:18;25.17;;;4.47;;
20976;SDS011;10647;51.016;3.720;2023-02-01T07:03:48;22.60;;;4.53;;
20976;SDS011;10647;51.016;3.720;2023-02-01T07:06:20;29.23;;;4.40;;
20976;SDS011;10647;51.016;3.720;2023-02-01T07:11:27;19.87;;;3.80;;
20976;SDS011;10647;51.016;3.720;2023-02-01T07:13:55;28.17;;;4.40;;
20976;SDS011;10647;51.016;3.720;2023-02-01T07:16:22;34.27;;;5.07;;
20976;SDS011;10647;51.016;3.720;2023-02-01T07:18:52;22.50;;;4.00;;
20976;SDS011;10647;51.016;3.720;2023-02-01T07:21:20;27.60;;;4.70;;
20976;SDS011;10647;51.016;3.720;2023-02-01T07:23:50;24.60;;;5.37;;
20976;SDS011;10647;51.016;3.720;2023-02-01T07:26:17;29.53;;;5.27;;
20976;SDS011;10647;51.016;3.720;2023-02-01T07:28:45;24.77;;;4.43;;
20976;SDS011;10647;51.016;3.720;2023-02-01T07:31:14;21.17;;;3.50;;
20976;SDS011;10647;51.016;3.720;2023-02-01T07:33:44;28.40;;;3.93;;
20976;SDS011;10647;51.016;3.720;2023-02-01T07:36:13;21.77;;;4.00;;
20976;SDS011;10647;51.016;3.720;2023-02-01T07:38:42;18.97;;;4.20;;
20976;SDS011;10647;51.016;3.720;2023-02-01T07:41:09;26.80;;;4.53;;
20976;SDS011;10647;51.016;3.720;2023-02-01T07:43:37;20.87;;;4.00;;
20976;SDS011;10647;51.016;3.720;2023-02-01T07:46:06;28.13;;;4.23;;
20976;SDS011;10647;51.016;3.720;2023-02-01T07:48:34;24.83;;;4.27;;
20976;SDS011;10647;51.016;3.720;2023-02-01T07:51:03;28.43;;;4.40;;
20976;SDS011;10647;51.016;3.720;2023-02-01T07:53:34;24.00;;;4.10;;
20976;SDS011;10647;51.016;3.720;2023-02-01T07:56:12;32.50;;;4.30;;
20976;SDS011;10647;51.016;3.720;2023-02-01T07:59:03;23.73;;;4.00;;
20976;SDS011;10647;51.016;3.720;2023-02-01T08:04:01;21.83;;;4.13;;
20976;SDS011;10647;51.016;3.720;2023-02-01T08:06:31;24.30;;;3.70;;
20976;SDS011;10647;51.016;3.720;2023-02-01T08:09:00;22.37;;;3.83;;
20976;SDS011;10647;51.016;3.720;2023-02-01T08:11:28;26.17;;;4.20;;
20976;SDS011;10647;51.016;3.720;2023-02-01T08:13:55;19.50;;;3.80;;
20976;SDS011;10647;51.016;3.720;2023-02-01T08:16:24;23.00;;;4.10;;
20976;SDS011;10647;51.016;3.720;2023-02-01T08:18:52;25.17;;;4.30;;
20976;SDS011;10647;51.016;3.720;2023-02-01T08:21:27;24.67;;;4.40;;
20976;SDS011;10647;51.016;3.720;2023-02-01T08:23:59;23.87;;;4.13;;
20976;SDS011;10647;51.016;3.720;2023-02-01T08:26:29;22.60;;;3.90;;
20976;SDS011;10647;51.016;3.720;2023-02-01T08:29:00;21.93;;;3.70;;
20976;SDS011;10647;51.016;3.720;2023-02-01T08:31:31;23.30;;;3.77;;
20976;SDS011;10647;51.016;3.720;2023-02-01T08:33:59;20.10;;;3.43;;
20976;SDS011;10647;51.016;3.720;2023-02-01T08:36:30;26.23;;;3.80;;
20976;SDS011;10647;51.016;3.720;2023-02-01T08:38:59;17.60;;;3.33;;
20976;SDS011;10647;51.016;3.720;2023-02-01T08:41:32;26.80;;;3.90;;
20976;SDS011;10647;51.016;3.720;2023-02-01T08:44:02;18.77;;;3.90;;
20976;SDS011;10647;51.016;3.720;2023-02-01T08:46:30;26.90;;;4.03;;
20976;SDS011;10647;51.016;3.720;2023-02-01T08:49:00;23.27;;;3.60;;
20976;SDS011;10647;51.016;3.720;2023-02-01T08:51:30;20.07;;;2.93;;
20976;SDS011;10647;51.016;3.720;2023-02-01T08:53:59;28.63;;;4.23;;
20976;SDS011;10647;51.016;3.720;2023-02-01T08:59:07;14.93;;;2.33;;
20976;SDS011;10647;51.016;3.720;2023-02-01T09:01:35;14.70;;;1.93;;
20976;SDS011;10647;51.016;3.720;2023-02-01T09:04:04;19.50;;;3.33;;
20976;SDS011;10647;51.016;3.720;2023-02-01T09:06:32;20.87;;;3.90;;
20976;SDS011;10647;51.016;3.720;2023-02-01T09:09:00;17.57;;;3.10;;
20976;SDS011;10647;51.016;3.720;2023-02-01T09:11:30;17.63;;;3.43;;
20976;SDS011;10647;51.016;3.720;2023-02-01T09:13:58;22.73;;;3.93;;
20976;SDS011;10647;51.016;3.720;2023-02-01T09:16:26;21.47;;;3.60;;
20976;SDS011;10647;51.016;3.720;2023-02-01T09:18:54;17.83;;;3.27;;
20976;SDS011;10647;51.016;3.720;2023-02-01T09:21:23;23.67;;;3.20;;
20976;SDS011;10647;51.016;3.720;2023-02-01T09:23:51;21.57;;;3.50;;
20976;SDS011;10647;51.016;3.720;2023-02-01T09:26:39;21.90;;;2.53;;
20976;SDS011;10647;51.016;3.720;2023-02-01T09:29:06;8.77;;;2.23;;
20976;SDS011;10647;51.016;3.720;2023-02-01T09:31:42;18.27;;;3.17;;
20976;SDS011;10647;51.016;3.720;2023-02-01T09:34:10;23.20;;;3.23;;
20976;SDS011;10647;51.016;3.720;2023-02-01T09:36:37;19.50;;;3.37;;
20976;SDS011;10647;51.016;3.720;2023-02-01T09:47:26;23.73;;;3.87;;
20976;SDS011;10647;51.016;3.720;2023-02-01T09:50:11;22.87;;;3.73;;
20976;SDS011;10647;51.016;3.720;2023-02-01T09:53:10;22.97;;;3.63;;
20976;SDS011;10647;51.016;3.720;2023-02-01T09:55:43;14.80;;;2.43;;
20976;SDS011;10647;51.016;3.720;2023-02-01T09:58:38;25.17;;;4.00;;
20976;SDS011;10647;51.016;3.720;2023-02-01T10:01:13;22.90;;;3.40;;
20976;SDS011;10647;51.016;3.720;2023-02-01T10:09:50;18.37;;;3.00;;
20976;SDS011;10647;51.016;3.720;2023-02-01T10:12:31;18.17;;;3.50;;
20976;SDS011;10647;51.016;3.720;2023-02-01T10:15:15;16.20;;;2.97;;
20976;SDS011;10647;51.016;3.720;2023-02-01T10:18:13;6.60;;;1.37;;
20976;SDS011;10647;51.016;3.720;2023-02-01T10:20:56;23.97;;;3.57;;
20976;SDS011;10647;51.016;3.720;2023-02-01T10:23:50;19.13;;;3.73;;
20976;SDS011;10647;51.016;3.720;2023-02-01T10:26:24;15.73;;;2.40;;
20976;SDS011;10647;51.016;3.720;2023-02-01T10:29:00;23.73;;;3.97;;
20976;SDS011;10647;51.016;3.720;2023-02-01T10:31:32;17.33;;;2.93;;
20976;SDS011;10647;51.016;3.720;2023-02-01T10:36:58;20.27;;;2.97;;
20976;SDS011;10647;51.016;3.720;2023-02-01T10:39:36;13.13;;;2.37;;
20976;SDS011;10647;51.016;3.720;2023-02-01T10:42:07;24.63;;;2.90;;
20976;SDS011;10647;51.016;3.720;2023-02-01T10:44:35;16.20;;;2.77;;
20976;SDS011;10647;51.016;3.720;2023-02-01T10:47:08;17.63;;;2.80;;
20976;SDS011;10647;51.016;3.720;2023-02-01T10:49:42;17.50;;;3.20;;
20976;SDS011;10647;51.016;3.720;2023-02-01T10:52:39;6.80;;;1.77;;
20976;SDS011;10647;51.016;3.720;2023-02-01T10:55:27;21.73;;;3.30;;
20976;SDS011;10647;51.016;3.720;2023-02-01T10:58:26;18.37;;;3.00;;
20976;SDS011;10647;51.016;3.720;2023-02-01T11:00:59;15.53;;;2.77;;
20976;SDS011;10647;51.016;3.720;2023-02-01T11:03:37;17.37;;;2.80;;
20976;SDS011;10647;51.016;3.720;2023-02-01T11:06:48;12.47;;;2.70;;
20976;SDS011;10647;51.016;3.720;2023-02-01T11:12:01;9.07;;;2.03;;
20976;SDS011;10647;51.016;3.720;2023-02-01T11:14:39;12.17;;;2.23;;
20976;SDS011;10647;51.016;3.720;2023-02-01T11:17:16;12.50;;;2.50;;
20976;SDS011;10647;51.016;3.720;2023-02-01T11:22:38;13.67;;;2.40;;
20976;SDS011;10647;51.016;3.720;2023-02-01T11:27:57;34.30;;;3.27;;
20976;SDS011;10647;51.016;3.720;2023-02-01T11:33:19;15.03;;;2.47;;
20976;SDS011;10647;51.016;3.720;2023-02-01T11:36:08;8.67;;;1.30;;
20976;SDS011;10647;51.016;3.720;2023-02-01T11:38:41;32.90;;;3.33;;
20976;SDS011;10647;51.016;3.720;2023-02-01T11:41:24;14.97;;;2.43;;
20976;SDS011;10647;51.016;3.720;2023-02-01T11:43:50;10.87;;;1.97;;
20976;SDS011;10647;51.016;3.720;2023-02-01T11:46:23;15.80;;;2.20;;
20976;SDS011;10647;51.016;3.720;2023-02-01T11:48:53;16.57;;;2.33;;
20976;SDS011;10647;51.016;3.720;2023-02-01T11:57:18;12.10;;;2.60;;
20976;SDS011;10647;51.016;3.720;2023-02-01T12:00:18;9.47;;;2.27;;
20976;SDS011;10647;51.016;3.720;2023-02-01T12:03:44;17.30;;;2.97;;
20976;SDS011;10647;51.016;3.720;2023-02-01T12:06:08;12.07;;;2.10;;
20976;SDS011;10647;51.016;3.720;2023-02-01T12:25:54;9.03;;;1.40;;
20976;SDS011;10647;51.016;3.720;2023-02-01T12:28:24;12.53;;;1.50;;
20976;SDS011;10647;51.016;3.720;2023-02-01T12:36:47;16.30;;;2.13;;
20976;SDS011;10647;51.016;3.720;2023-02-01T12:50:55;13.00;;;2.00;;
20976;SDS011;10647;51.016;3.720;2023-02-01T12:53:28;10.13;;;1.57;;
20976;SDS011;10647;51.016;3.720;2023-02-01T12:58:48;16.50;;;2.13;;
20976;SDS011;10647;51.016;3.720;2023-02-01T13:01:40;7.23;;;1.90;;
20976;SDS011;10647;51.016;3.720;2023-02-01T13:04:29;14.23;;;2.33;;
20976;SDS011;10647;51.016;3.720;2023-02-01T13:07:11;9.47;;;1.50;;
20976;SDS011;10647;51.016;3.720;2023-02-01T13:09:45;6.63;;;1.40;;
20976;SDS011;10647;51.016;3.720;2023-02-01T13:12:40;13.40;;;2.23;;
20976;SDS011;10647;51.016;3.720;2023-02-01T13:15:10;11.77;;;2.20;;
20976;SDS011;10647;51.016;3.720;2023-02-01T13:17:41;11.03;;;2.07;;
20976;SDS011;10647;51.016;3.720;2023-02-01T13:20:23;7.87;;;1.07;;
20976;SDS011;10647;51.016;3.720;2023-02-01T13:23:21;8.95;;;1.87;;
20976;SDS011;10647;51.016;3.720;2023-02-01T13:25:48;10.65;;;1.80;;
20976;SDS011;10647;51.016;3.720;2023-02-01T13:28:23;13.25;;;2.55;;
20976;SDS011;10647;51.016;3.720;2023-02-01T13:37:12;11.08;;;1.70;;
20976;SDS011;10647;51.016;3.720;2023-02-01T13:42:34;16.85;;;2.85;;
20976;SDS011;10647;51.016;3.720;2023-02-01T13:45:19;9.10;;;1.37;;
20976;SDS011;10647;51.016;3.720;2023-02-01T13:47:59;8.48;;;1.90;;
20976;SDS011;10647;51.016;3.720;2023-02-01T13:50:35;16.82;;;2.83;;
20976;SDS011;10647;51.016;3.720;2023-02-01T13:53:20;11.30;;;2.40;;
20976;SDS011;10647;51.016;3.720;2023-02-01T13:56:05;11.65;;;2.50;;
20976;SDS011;10647;51.016;3.720;2023-02-01T14:04:01;10.93;;;1.98;;
20976;SDS011;10647;51.016;3.720;2023-02-01T14:09:13;10.68;;;1.95;;
20976;SDS011;10647;51.016;3.720;2023-02-01T14:11:47;17.63;;;2.10;;
20976;SDS011;10647;51.016;3.720;2023-02-01T14:19:29;13.37;;;1.73;;
20976;SDS011;10647;51.016;3.720;2023-02-01T14:21:59;16.10;;;2.40;;
20976;SDS011;10647;51.016;3.720;2023-02-01T14:24:31;13.73;;;2.20;;
20976;SDS011;10647;51.016;3.720;2023-02-01T14:29:43;17.50;;;2.67;;
20976;SDS011;10647;51.016;3.720;2023-02-01T14:32:20;14.73;;;2.20;;
20976;SDS011;10647;51.016;3.720;2023-02-01T14:34:53;18.17;;;2.53;;
20976;SDS011;10647;51.016;3.720;2023-02-01T14:37:26;16.33;;;2.37;;
20976;SDS011;10647;51.016;3.720;2023-02-01T14:40:05;13.70;;;2.47;;
20976;SDS011;10647;51.016;3.720;2023-02-01T14:42:52;14.97;;;2.60;;
20976;SDS011;10647;51.016;3.720;2023-02-01T14:50:39;18.50;;;2.70;;
20976;SDS011;10647;51.016;3.720;2023-02-01T15:01:20;16.27;;;2.37;;
20976;SDS011;10647;51.016;3.720;2023-02-01T15:04:13;7.70;;;1.83;;
20976;SDS011;10647;51.016;3.720;2023-02-01T15:06:53;6.73;;;1.53;;
20976;SDS011;10647;51.016;3.720;2023-02-01T15:14:35;10.50;;;1.67;;
20976;SDS011;10647;51.016;3.720;2023-02-01T15:17:16;11.40;;;1.60;;
20976;SDS011;10647;51.016;3.720;2023-02-01T15:20:11;19.43;;;2.33;;
20976;SDS011;10647;51.016;3.720;2023-02-01T15:22:41;13.90;;;2.27;;
20976;SDS011;10647;51.016;3.720;2023-02-01T15:25:20;17.60;;;2.70;;
20976;SDS011;10647;51.016;3.720;2023-02-01T15:27:50;15.23;;;2.30;;
20976;SDS011;10647;51.016;3.720;2023-02-01T15:30:19;17.23;;;2.70;;
20976;SDS011;10647;51.016;3.720;2023-02-01T15:32:52;9.70;;;1.90;;
20976;SDS011;10647;51.016;3.720;2023-02-01T15:35:40;21.40;;;2.80;;
20976;SDS011;10647;51.016;3.720;2023-02-01T15:40:54;10.03;;;2.20;;
20976;SDS011;10647;51.016;3.720;2023-02-01T15:43:27;20.97;;;3.00;;
20976;SDS011;10647;51.016;3.720;2023-02-01T15:46:06;20.33;;;2.37;;
20976;SDS011;10647;51.016;3.720;2023-02-01T15:48:42;15.53;;;2.80;;
20976;SDS011;10647;51.016;3.720;2023-02-01T15:51:29;10.40;;;1.63;;
20976;SDS011;10647;51.016;3.720;2023-02-01T15:54:03;14.30;;;2.67;;
20976;SDS011;10647;51.016;3.720;2023-02-01T15:56:34;19.50;;;3.27;;
20976;SDS011;10647;51.016;3.720;2023-02-01T15:59:04;23.80;;;3.43;;
20976;SDS011;10647;51.016;3.720;2023-02-01T16:01:37;16.17;;;3.33;;
20976;SDS011;10647;51.016;3.720;2023-02-01T16:04:27;20.10;;;3.30;;
20976;SDS011;10647;51.016;3.720;2023-02-01T16:06:59;19.47;;;3.03;;
20976;SDS011;10647;51.016;3.720;2023-02-01T16:15:14;24.73;;;3.10;;
20976;SDS011;10647;51.016;3.720;2023-02-01T16:17:42;17.73;;;2.43;;
20976;SDS011;10647;51.016;3.720;2023-02-01T16:20:11;25.13;;;3.60;;
20976;SDS011;10647;51.016;3.720;2023-02-01T16:22:40;19.13;;;2.90;;
20976;SDS011;10647;51.016;3.720;2023-02-01T16:25:07;22.33;;;4.43;;
20976;SDS011;10647;51.016;3.720;2023-02-01T16:27:42;18.00;;;2.90;;
20976;SDS011;10647;51.016;3.720;2023-02-01T16:30:09;17.70;;;2.87;;
20976;SDS011;10647;51.016;3.720;2023-02-01T16:32:37;18.97;;;2.70;;
20976;SDS011;10647;51.016;3.720;2023-02-01T16:35:22;26.70;;;3.17;;
20976;SDS011;10647;51.016;3.720;2023-02-01T16:37:48;21.93;;;4.10;;
20976;SDS011;10647;51.016;3.720;2023-02-01T16:40:15;16.60;;;2.80;;
20976;SDS011;10647;51.016;3.720;2023-02-01T16:42:46;23.50;;;3.87;;
20976;SDS011;10647;51.016;3.720;2023-02-01T16:45:16;20.87;;;3.67;;
20976;SDS011;10647;51.016;3.720;2023-02-01T16:47:45;20.20;;;3.20;;
20976;SDS011;10647;51.016;3.720;2023-02-01T16:50:17;17.93;;;3.00;;
20976;SDS011;10647;51.016;3.720;2023-02-01T16:52:46;22.87;;;3.57;;
20976;SDS011;10647;51.016;3.720;2023-02-01T16:55:15;18.97;;;3.27;;
20976;SDS011;10647;51.016;3.720;2023-02-01T16:57:44;24.77;;;3.63;;
20976;SDS011;10647;51.016;3.720;2023-02-01T17:00:11;21.03;;;3.97;;
20976;SDS011;10647;51.016;3.720;2023-02-01T17:02:41;21.63;;;2.97;;
20976;SDS011;10647;51.016;3.720;2023-02-01T17:05:09;23.03;;;3.70;;
20976;SDS011;10647;51.016;3.720;2023-02-01T17:07:37;19.03;;;3.70;;
20976;SDS011;10647;51.016;3.720;2023-02-01T17:10:11;22.37;;;2.77;;
20976;SDS011;10647;51.016;3.720;2023-02-01T17:12:37;24.93;;;4.07;;
20976;SDS011;10647;51.016;3.720;2023-02-01T17:15:06;17.80;;;3.47;;
20976;SDS011;10647;51.016;3.720;2023-02-01T17:17:36;22.27;;;3.67;;
20976;SDS011;10647;51.016;3.720;2023-02-01T17:20:06;15.80;;;3.30;;
20976;SDS011;10647;51.016;3.720;2023-02-01T17:22:33;27.30;;;4.00;;
20976;SDS011;10647;51.016;3.720;2023-02-01T17:25:01;23.00;;;4.20;;
20976;SDS011;10647;51.016;3.720;2023-02-01T17:27:30;14.93;;;2.97;;
20976;SDS011;10647;51.016;3.720;2023-02-01T17:29:58;20.10;;;3.83;;
20976;SDS011;10647;51.016;3.720;2023-02-01T17:32:28;20.07;;;3.43;;
20976;SDS011;10647;51.016;3.720;2023-02-01T17:34:55;20.77;;;4.33;;
20976;SDS011;10647;51.016;3.720;2023-02-01T17:37:27;22.80;;;3.97;;
20976;SDS011;10647;51.016;3.720;2023-02-01T17:39:56;12.93;;;2.93;;
20976;SDS011;10647;51.016;3.720;2023-02-01T17:42:25;17.87;;;3.63;;
20976;SDS011;10647;51.016;3.720;2023-02-01T17:47:46;25.03;;;4.40;;
20976;SDS011;10647;51.016;3.720;2023-02-01T17:50:14;18.90;;;3.30;;
20976;SDS011;10647;51.016;3.720;2023-02-01T17:52:42;24.73;;;4.80;;
20976;SDS011;10647;51.016;3.720;2023-02-01T17:55:19;22.57;;;4.20;;
20976;SDS011;10647;51.016;3.720;2023-02-01T17:57:43;20.80;;;4.97;;
20976;SDS011;10647;51.016;3.720;2023-02-01T18:00:11;24.60;;;4.40;;
20976;SDS011;10647;51.016;3.720;2023-02-01T18:02:39;19.33;;;4.20;;
20976;SDS011;10647;51.016;3.720;2023-02-01T18:08:05;21.00;;;4.20;;
20976;SDS011;10647;51.016;3.720;2023-02-01T18:10:55;29.23;;;6.23;;
20976;SDS011;10647;51.016;3.720;2023-02-01T18:13:27;24.93;;;4.80;;